Spartan — WDF5483 — position and weather

sailwx.info

Track history (hours):
 
Tides and Currents Weather Stations Pressure Air Temp Water Temp Dewpoint Dewpoint Depression Visibility Wind Speed Wind Dir Waves Ship Positions

Spartan

Owner: Occidental Chemical Corporation, Dallas, TX. More information available from US FCC via Universal Licensing System and Coast Guard Vessel Documentation Center.

Last reported at 2017-Nov-23 14:19 UTC. Time now 2017-Nov-24 11:10 UTC.
Position N 45°24' W 083°29'.

Length 33 m; draft 4.2 m.

Type: Tug. MMSI: 367463740.

Date/timePositionNaut miles runAvg speedWind from/ knotsBaromVisibWave heightAir tempDewpointWater temp
2017-Nov-23 14:19N 45°24' W 083°29'3 8.5
2017-Nov-23 14:00N 45°25' W 083°33'4 8.5
2017-Nov-23 13:30N 45°27' W 083°38'4 8.5
2017-Nov-23 13:00N 45°29' W 083°43'4 8.5
2017-Nov-23 12:30N 45°31' W 083°49'4 8.5
2017-Nov-23 12:00N 45°33' W 083°54'5 8.4
2017-Nov-23 11:28N 45°35' W 084°00'17 8.2
2017-Nov-23 09:25N 45°41' W 084°22'3 8.5
2017-Nov-23 09:00N 45°42' W 084°27'4 8.4
2017-Nov-23 08:31N 45°44' W 084°33'4 8.5
2017-Nov-23 08:01N 45°46' W 084°38'4 8.4
2017-Nov-23 07:30N 45°49' W 084°43'4 8.4
2017-Nov-23 07:01N 45°49' W 084°48'4 8.3
2017-Nov-23 06:31N 45°49' W 084°54'4 8.3
2017-Nov-23 06:01N 45°50' W 085°00'4 8.1
2017-Nov-23 05:30N 45°50' W 085°06'3 6.8
2017-Nov-23 05:00N 45°47' W 085°09'4 7.9
2017-Nov-23 04:31N 45°43' W 085°11'4 8.7
2017-Nov-23 04:01N 45°40' W 085°15'4 8.6
2017-Nov-23 03:31N 45°37' W 085°19'4 8.4
2017-Nov-23 03:01N 45°33' W 085°22'4 8.6
2017-Nov-23 02:31N 45°30' W 085°26'4 8.6
2017-Nov-23 02:00N 45°26' W 085°30'4 8.5
2017-Nov-23 01:30N 45°23' W 085°34'4 8.5
2017-Nov-23 01:01N 45°20' W 085°37'4 8.6
2017-Nov-23 00:31N 45°16' W 085°41'4 8.6
2017-Nov-23 00:00N 45°12' W 085°44'  
Track history (hours):
 
Tides and Currents Weather Stations Pressure Air Temp Water Temp Dewpoint Dewpoint Depression Visibility Wind Speed Wind Dir Waves Ship Positions

Spartan

Owner: Occidental Chemical Corporation, Dallas, TX. More information available from US FCC via Universal Licensing System and Coast Guard Vessel Documentation Center.

Last reported at 2017-Nov-23 14:19 UTC. Time now 2017-Nov-24 11:10 UTC.
Position N 45°24' W 083°29'.

Length 33 m; draft 4.2 m.

Type: Tug. MMSI: 367463740.

Date/timePositionNaut miles runAvg speedWind from/ knotsBaromVisibWave heightAir tempDewpointWater temp
2017-Nov-23 14:19N 45°24' W 083°29'3 8.5
2017-Nov-23 14:00N 45°25' W 083°33'4 8.5
2017-Nov-23 13:30N 45°27' W 083°38'4 8.5
2017-Nov-23 13:00N 45°29' W 083°43'4 8.5
2017-Nov-23 12:30N 45°31' W 083°49'4 8.5
2017-Nov-23 12:00N 45°33' W 083°54'5 8.4
2017-Nov-23 11:28N 45°35' W 084°00'17 8.2
2017-Nov-23 09:25N 45°41' W 084°22'3 8.5
2017-Nov-23 09:00N 45°42' W 084°27'4 8.4
2017-Nov-23 08:31N 45°44' W 084°33'4 8.5
2017-Nov-23 08:01N 45°46' W 084°38'4 8.4
2017-Nov-23 07:30N 45°49' W 084°43'4 8.4
2017-Nov-23 07:01N 45°49' W 084°48'4 8.3
2017-Nov-23 06:31N 45°49' W 084°54'4 8.3
2017-Nov-23 06:01N 45°50' W 085°00'4 8.1
2017-Nov-23 05:30N 45°50' W 085°06'3 6.8
2017-Nov-23 05:00N 45°47' W 085°09'4 7.9
2017-Nov-23 04:31N 45°43' W 085°11'4 8.7
2017-Nov-23 04:01N 45°40' W 085°15'4 8.6
2017-Nov-23 03:31N 45°37' W 085°19'4 8.4
2017-Nov-23 03:01N 45°33' W 085°22'4 8.6
2017-Nov-23 02:31N 45°30' W 085°26'4 8.6
2017-Nov-23 02:00N 45°26' W 085°30'4 8.5
2017-Nov-23 01:30N 45°23' W 085°34'4 8.5
2017-Nov-23 01:01N 45°20' W 085°37'4 8.6
2017-Nov-23 00:31N 45°16' W 085°41'4 8.6
2017-Nov-23 00:00N 45°12' W 085°44'  

Dump ship's entire track history